sensor_id;sensor_type;location;lat;lon;timestamp;pressure;altitude;pressure_sealevel;temperature
66372;BMP180;53168;51.146;17.120;2023-06-26T00:02:13;100309.80;;;17.22
66372;BMP180;53168;51.146;17.120;2023-06-26T00:04:44;100308.80;;;17.20
66372;BMP180;53168;51.146;17.120;2023-06-26T00:07:13;100308.00;;;17.20
66372;BMP180;53168;51.146;17.120;2023-06-26T00:09:43;100306.60;;;17.20
66372;BMP180;53168;51.146;17.120;2023-06-26T00:12:14;100304.40;;;17.20
66372;BMP180;53168;51.146;17.120;2023-06-26T00:15:02;100305.20;;;17.10
66372;BMP180;53168;51.146;17.120;2023-06-26T00:17:33;100301.20;;;17.10
66372;BMP180;53168;51.146;17.120;2023-06-26T00:20:11;100300.00;;;17.10
66372;BMP180;53168;51.146;17.120;2023-06-26T00:26:27;100301.40;;;17.06
66372;BMP180;53168;51.146;17.120;2023-06-26T00:32:51;100295.60;;;17.00
66372;BMP180;53168;51.146;17.120;2023-06-26T00:35:34;100296.40;;;17.00
66372;BMP180;53168;51.146;17.120;2023-06-26T00:38:53;100290.60;;;17.00
66372;BMP180;53168;51.146;17.120;2023-06-26T00:41:37;100290.20;;;17.00
66372;BMP180;53168;51.146;17.120;2023-06-26T00:44:28;100290.20;;;17.00
66372;BMP180;53168;51.146;17.120;2023-06-26T00:47:27;100286.20;;;17.00
66372;BMP180;53168;51.146;17.120;2023-06-26T00:50:25;100285.40;;;16.90
66372;BMP180;53168;51.146;17.120;2023-06-26T00:53:42;100283.60;;;16.90
66372;BMP180;53168;51.146;17.120;2023-06-26T00:56:44;100280.40;;;16.90
66372;BMP180;53168;51.146;17.120;2023-06-26T00:59:57;100277.80;;;16.90
66372;BMP180;53168;51.146;17.120;2023-06-26T01:02:33;100280.00;;;16.80
66372;BMP180;53168;51.146;17.120;2023-06-26T01:05:05;100282.20;;;16.80
66372;BMP180;53168;51.146;17.120;2023-06-26T01:07:38;100277.40;;;16.80
66372;BMP180;53168;51.146;17.120;2023-06-26T01:10:09;100275.40;;;16.80
66372;BMP180;53168;51.146;17.120;2023-06-26T01:12:40;100275.60;;;16.70
66372;BMP180;53168;51.146;17.120;2023-06-26T01:15:11;100274.40;;;16.70
66372;BMP180;53168;51.146;17.120;2023-06-26T01:17:42;100273.60;;;16.70
66372;BMP180;53168;51.146;17.120;2023-06-26T01:20:15;100277.40;;;16.70
66372;BMP180;53168;51.146;17.120;2023-06-26T01:23:00;100276.00;;;16.62
66372;BMP180;53168;51.146;17.120;2023-06-26T01:25:58;100273.00;;;16.64
66372;BMP180;53168;51.146;17.120;2023-06-26T01:28:34;100273.40;;;16.70
66372;BMP180;53168;51.146;17.120;2023-06-26T01:31:07;100274.40;;;16.70
66372;BMP180;53168;51.146;17.120;2023-06-26T01:33:47;100269.60;;;16.70
66372;BMP180;53168;51.146;17.120;2023-06-26T01:36:18;100274.40;;;16.70
66372;BMP180;53168;51.146;17.120;2023-06-26T01:39:15;100273.40;;;16.70
66372;BMP180;53168;51.146;17.120;2023-06-26T01:42:35;100271.40;;;16.70
66372;BMP180;53168;51.146;17.120;2023-06-26T01:49:20;100266.40;;;16.60
66372;BMP180;53168;51.146;17.120;2023-06-26T01:53:24;100258.40;;;16.60
66372;BMP180;53168;51.146;17.120;2023-06-26T01:56:36;100250.40;;;16.60
66372;BMP180;53168;51.146;17.120;2023-06-26T01:59:29;100248.00;;;16.60
66372;BMP180;53168;51.146;17.120;2023-06-26T02:02:10;100246.80;;;16.60
66372;BMP180;53168;51.146;17.120;2023-06-26T02:04:54;100241.00;;;16.54
66372;BMP180;53168;51.146;17.120;2023-06-26T02:07:25;100245.40;;;16.50
66372;BMP180;53168;51.146;17.120;2023-06-26T02:09:57;100238.80;;;16.50
66372;BMP180;53168;51.146;17.120;2023-06-26T02:12:27;100241.40;;;16.50
66372;BMP180;53168;51.146;17.120;2023-06-26T02:14:58;100239.80;;;16.50
66372;BMP180;53168;51.146;17.120;2023-06-26T02:17:28;100237.80;;;16.42
66372;BMP180;53168;51.146;17.120;2023-06-26T02:19:59;100241.40;;;16.40
66372;BMP180;53168;51.146;17.120;2023-06-26T02:22:34;100241.80;;;16.40
66372;BMP180;53168;51.146;17.120;2023-06-26T02:25:07;100247.60;;;16.34
66372;BMP180;53168;51.146;17.120;2023-06-26T02:27:40;100248.20;;;16.30
66372;BMP180;53168;51.146;17.120;2023-06-26T02:30:23;100246.40;;;16.30
66372;BMP180;53168;51.146;17.120;2023-06-26T02:32:53;100249.00;;;16.30
66372;BMP180;53168;51.146;17.120;2023-06-26T02:35:38;100247.00;;;16.30
66372;BMP180;53168;51.146;17.120;2023-06-26T02:38:08;100247.60;;;16.30
66372;BMP180;53168;51.146;17.120;2023-06-26T02:40:49;100248.00;;;16.28
66372;BMP180;53168;51.146;17.120;2023-06-26T02:43:33;100247.00;;;16.22
66372;BMP180;53168;51.146;17.120;2023-06-26T02:46:08;100248.80;;;16.20
66372;BMP180;53168;51.146;17.120;2023-06-26T02:48:40;100247.80;;;16.26
66372;BMP180;53168;51.146;17.120;2023-06-26T02:54:13;100249.40;;;16.20
66372;BMP180;53168;51.146;17.120;2023-06-26T02:56:44;100249.20;;;16.20
66372;BMP180;53168;51.146;17.120;2023-06-26T02:59:17;100250.40;;;16.20
66372;BMP180;53168;51.146;17.120;2023-06-26T03:01:48;100248.20;;;16.20
66372;BMP180;53168;51.146;17.120;2023-06-26T03:04:19;100249.40;;;16.20
66372;BMP180;53168;51.146;17.120;2023-06-26T03:06:50;100244.40;;;16.10
66372;BMP180;53168;51.146;17.120;2023-06-26T03:09:20;100244.60;;;16.12
66372;BMP180;53168;51.146;17.120;2023-06-26T03:11:52;100247.00;;;16.10
66372;BMP180;53168;51.146;17.120;2023-06-26T03:14:25;100247.20;;;16.20
66372;BMP180;53168;51.146;17.120;2023-06-26T03:16:57;100247.40;;;16.20
66372;BMP180;53168;51.146;17.120;2023-06-26T03:19:30;100249.20;;;16.20
66372;BMP180;53168;51.146;17.120;2023-06-26T03:22:17;100243.00;;;16.30
66372;BMP180;53168;51.146;17.120;2023-06-26T03:24:47;100238.80;;;16.30
66372;BMP180;53168;51.146;17.120;2023-06-26T03:27:16;100235.20;;;16.30
66372;BMP180;53168;51.146;17.120;2023-06-26T03:29:49;100233.40;;;16.40
66372;BMP180;53168;51.146;17.120;2023-06-26T03:32:20;100233.00;;;16.40
66372;BMP180;53168;51.146;17.120;2023-06-26T03:34:52;100231.20;;;16.50
66372;BMP180;53168;51.146;17.120;2023-06-26T03:37:23;100229.20;;;16.50
66372;BMP180;53168;51.146;17.120;2023-06-26T03:39:54;100227.60;;;16.50
66372;BMP180;53168;51.146;17.120;2023-06-26T03:42:24;100227.40;;;16.58
66372;BMP180;53168;51.146;17.120;2023-06-26T03:44:57;100229.20;;;16.60
66372;BMP180;53168;51.146;17.120;2023-06-26T03:47:31;100229.00;;;16.66
66372;BMP180;53168;51.146;17.120;2023-06-26T03:50:07;100229.80;;;16.70
66372;BMP180;53168;51.146;17.120;2023-06-26T03:52:37;100224.60;;;16.72
66372;BMP180;53168;51.146;17.120;2023-06-26T03:55:09;100230.00;;;16.80
66372;BMP180;53168;51.146;17.120;2023-06-26T03:57:40;100223.20;;;16.86
66372;BMP180;53168;51.146;17.120;2023-06-26T04:00:16;100227.20;;;16.90
66372;BMP180;53168;51.146;17.120;2023-06-26T04:02:50;100226.40;;;17.00
66372;BMP180;53168;51.146;17.120;2023-06-26T04:05:23;100214.60;;;17.38
66372;BMP180;53168;51.146;17.120;2023-06-26T04:07:59;100202.40;;;18.16
66372;BMP180;53168;51.146;17.120;2023-06-26T04:13:21;100228.80;;;18.74
66372;BMP180;53168;51.146;17.120;2023-06-26T04:15:50;100231.00;;;18.42
66372;BMP180;53168;51.146;17.120;2023-06-26T04:18:20;100226.60;;;18.20
66372;BMP180;53168;51.146;17.120;2023-06-26T04:21:09;100223.00;;;18.08
66372;BMP180;53168;51.146;17.120;2023-06-26T04:23:50;100223.20;;;18.00
66372;BMP180;53168;51.146;17.120;2023-06-26T04:27:26;100223.80;;;18.00
66372;BMP180;53168;51.146;17.120;2023-06-26T04:34:21;100219.80;;;18.10
66372;BMP180;53168;51.146;17.120;2023-06-26T04:37:51;100212.20;;;18.20
66372;BMP180;53168;51.146;17.120;2023-06-26T04:41:50;100215.40;;;18.30
66372;BMP180;53168;51.146;17.120;2023-06-26T04:45:36;100213.40;;;18.40
66372;BMP180;53168;51.146;17.120;2023-06-26T04:48:49;100211.80;;;18.60
66372;BMP180;53168;51.146;17.120;2023-06-26T04:51:30;100213.20;;;18.78
66372;BMP180;53168;51.146;17.120;2023-06-26T04:54:30;100216.20;;;18.90
66372;BMP180;53168;51.146;17.120;2023-06-26T04:57:36;100215.20;;;19.00
66372;BMP180;53168;51.146;17.120;2023-06-26T05:00:21;100213.40;;;19.00
66372;BMP180;53168;51.146;17.120;2023-06-26T05:02:51;100211.40;;;19.10
66372;BMP180;53168;51.146;17.120;2023-06-26T05:05:30;100208.60;;;19.20
66372;BMP180;53168;51.146;17.120;2023-06-26T05:08:13;100213.20;;;19.22
66372;BMP180;53168;51.146;17.120;2023-06-26T05:10:45;100209.20;;;19.30
66372;BMP180;53168;51.146;17.120;2023-06-26T05:13:15;100212.20;;;19.40
66372;BMP180;53168;51.146;17.120;2023-06-26T05:15:47;100203.40;;;19.40
66372;BMP180;53168;51.146;17.120;2023-06-26T05:41:28;100204.00;;;20.56
66372;BMP180;53168;51.146;17.120;2023-06-26T05:44:02;100200.00;;;20.70
66372;BMP180;53168;51.146;17.120;2023-06-26T05:46:36;100197.60;;;20.80
66372;BMP180;53168;51.146;17.120;2023-06-26T05:49:15;100199.40;;;20.90
66372;BMP180;53168;51.146;17.120;2023-06-26T05:51:50;100192.60;;;20.96
66372;BMP180;53168;51.146;17.120;2023-06-26T05:54:26;100198.80;;;21.10
66372;BMP180;53168;51.146;17.120;2023-06-26T05:57:09;100197.80;;;21.20
66372;BMP180;53168;51.146;17.120;2023-06-26T05:59:52;100195.00;;;21.30
66372;BMP180;53168;51.146;17.120;2023-06-26T06:02:27;100194.40;;;21.40
66372;BMP180;53168;51.146;17.120;2023-06-26T06:08:06;100199.40;;;21.70
66372;BMP180;53168;51.146;17.120;2023-06-26T06:10:44;100197.60;;;21.80
66372;BMP180;53168;51.146;17.120;2023-06-26T06:13:23;100203.40;;;21.90
66372;BMP180;53168;51.146;17.120;2023-06-26T06:16:22;100202.00;;;22.00
66372;BMP180;53168;51.146;17.120;2023-06-26T06:19:24;100207.40;;;22.20
66372;BMP180;53168;51.146;17.120;2023-06-26T06:22:12;100205.60;;;22.30
66372;BMP180;53168;51.146;17.120;2023-06-26T06:24:48;100208.00;;;22.46
66372;BMP180;53168;51.146;17.120;2023-06-26T06:27:24;100205.20;;;22.50
66372;BMP180;53168;51.146;17.120;2023-06-26T06:30:02;100201.20;;;22.50
66372;BMP180;53168;51.146;17.120;2023-06-26T06:33:21;100203.60;;;22.60
66372;BMP180;53168;51.146;17.120;2023-06-26T06:35:57;100202.80;;;22.70
66372;BMP180;53168;51.146;17.120;2023-06-26T06:38:31;100200.80;;;22.80
66372;BMP180;53168;51.146;17.120;2023-06-26T06:41:09;100203.60;;;22.90
66372;BMP180;53168;51.146;17.120;2023-06-26T06:43:54;100201.20;;;23.00
66372;BMP180;53168;51.146;17.120;2023-06-26T06:46:36;100204.20;;;23.10
66372;BMP180;53168;51.146;17.120;2023-06-26T06:49:25;100211.60;;;23.20
66372;BMP180;53168;51.146;17.120;2023-06-26T06:52:47;100207.60;;;23.30
66372;BMP180;53168;51.146;17.120;2023-06-26T06:56:15;100203.20;;;23.50
66372;BMP180;53168;51.146;17.120;2023-06-26T06:59:23;100200.80;;;23.60
66372;BMP180;53168;51.146;17.120;2023-06-26T07:02:28;100196.40;;;23.70
66372;BMP180;53168;51.146;17.120;2023-06-26T07:05:15;100195.80;;;23.80
66372;BMP180;53168;51.146;17.120;2023-06-26T07:18:50;100194.40;;;24.40
66372;BMP180;53168;51.146;17.120;2023-06-26T07:26:23;100189.00;;;24.70
66372;BMP180;53168;51.146;17.120;2023-06-26T07:29:55;100184.40;;;24.80
66372;BMP180;53168;51.146;17.120;2023-06-26T07:32:57;100185.40;;;24.90
66372;BMP180;53168;51.146;17.120;2023-06-26T07:39:17;100187.40;;;25.16
66372;BMP180;53168;51.146;17.120;2023-06-26T07:42:13;100185.20;;;25.20
66372;BMP180;53168;51.146;17.120;2023-06-26T07:44:57;100184.00;;;25.30
66372;BMP180;53168;51.146;17.120;2023-06-26T07:50:50;100181.20;;;25.50
66372;BMP180;53168;51.146;17.120;2023-06-26T07:53:38;100180.80;;;25.60
66372;BMP180;53168;51.146;17.120;2023-06-26T07:56:59;100183.40;;;25.70
66372;BMP180;53168;51.146;17.120;2023-06-26T07:59:46;100181.80;;;25.88
66372;BMP180;53168;51.146;17.120;2023-06-26T08:06:16;100178.40;;;26.00
66372;BMP180;53168;51.146;17.120;2023-06-26T08:09:40;100181.60;;;26.10
66372;BMP180;53168;51.146;17.120;2023-06-26T08:12:26;100178.00;;;26.20
66372;BMP180;53168;51.146;17.120;2023-06-26T08:15:18;100179.20;;;26.30
66372;BMP180;53168;51.146;17.120;2023-06-26T08:18:14;100174.20;;;26.34
66372;BMP180;53168;51.146;17.120;2023-06-26T08:25:00;100170.20;;;26.50
66372;BMP180;53168;51.146;17.120;2023-06-26T08:31:12;100166.80;;;26.90
66372;BMP180;53168;51.146;17.120;2023-06-26T08:34:13;100165.60;;;27.14
66372;BMP180;53168;51.146;17.120;2023-06-26T08:37:29;100169.20;;;27.20
66372;BMP180;53168;51.146;17.120;2023-06-26T08:40:45;100167.60;;;27.20
66372;BMP180;53168;51.146;17.120;2023-06-26T08:47:00;100168.20;;;27.40
66372;BMP180;53168;51.146;17.120;2023-06-26T08:50:04;100167.20;;;27.50
66372;BMP180;53168;51.146;17.120;2023-06-26T08:53:36;100162.40;;;27.52
66372;BMP180;53168;51.146;17.120;2023-06-26T08:57:07;100161.20;;;27.60
66372;BMP180;53168;51.146;17.120;2023-06-26T09:00:22;100155.80;;;27.70
66372;BMP180;53168;51.146;17.120;2023-06-26T09:03:58;100157.00;;;27.70
66372;BMP180;53168;51.146;17.120;2023-06-26T09:07:06;100156.00;;;27.22
66372;BMP180;53168;51.146;17.120;2023-06-26T09:14:04;100147.20;;;26.88
66372;BMP180;53168;51.146;17.120;2023-06-26T09:17:14;100148.40;;;27.18
66372;BMP180;53168;51.146;17.120;2023-06-26T09:24:18;100142.20;;;27.80
66372;BMP180;53168;51.146;17.120;2023-06-26T09:27:05;100139.40;;;27.90
66372;BMP180;53168;51.146;17.120;2023-06-26T09:30:27;100138.00;;;27.90
66372;BMP180;53168;51.146;17.120;2023-06-26T09:43:03;100126.40;;;28.28
66372;BMP180;53168;51.146;17.120;2023-06-26T09:45:40;100130.60;;;28.20
66372;BMP180;53168;51.146;17.120;2023-06-26T09:48:17;100122.60;;;28.30
66372;BMP180;53168;51.146;17.120;2023-06-26T09:50:52;100122.60;;;28.50
66372;BMP180;53168;51.146;17.120;2023-06-26T09:53:45;100123.40;;;28.60
66372;BMP180;53168;51.146;17.120;2023-06-26T09:56:22;100122.00;;;28.64
66372;BMP180;53168;51.146;17.120;2023-06-26T09:58:59;100118.20;;;28.74
66372;BMP180;53168;51.146;17.120;2023-06-26T10:01:39;100127.20;;;28.62
66372;BMP180;53168;51.146;17.120;2023-06-26T10:04:15;100125.00;;;28.44
66372;BMP180;53168;51.146;17.120;2023-06-26T10:06:56;100117.40;;;28.58
66372;BMP180;53168;51.146;17.120;2023-06-26T10:09:32;100120.20;;;28.40
66372;BMP180;53168;51.146;17.120;2023-06-26T10:12:13;100121.80;;;28.20
66372;BMP180;53168;51.146;17.120;2023-06-26T10:14:50;100123.00;;;28.00
66372;BMP180;53168;51.146;17.120;2023-06-26T10:17:34;100123.80;;;28.10
66372;BMP180;53168;51.146;17.120;2023-06-26T10:20:16;100117.00;;;28.10
66372;BMP180;53168;51.146;17.120;2023-06-26T10:22:54;100114.60;;;28.20
66372;BMP180;53168;51.146;17.120;2023-06-26T10:25:37;100110.20;;;28.50
66372;BMP180;53168;51.146;17.120;2023-06-26T10:28:17;100099.20;;;28.72
66372;BMP180;53168;51.146;17.120;2023-06-26T10:30:57;100096.60;;;29.30
66372;BMP180;53168;51.146;17.120;2023-06-26T10:33:33;100096.80;;;29.86
66372;BMP180;53168;51.146;17.120;2023-06-26T10:36:30;100097.40;;;30.00
66372;BMP180;53168;51.146;17.120;2023-06-26T10:39:07;100098.00;;;29.90
66372;BMP180;53168;51.146;17.120;2023-06-26T10:41:46;100101.40;;;29.66
66372;BMP180;53168;51.146;17.120;2023-06-26T10:44:29;100099.80;;;29.32
66372;BMP180;53168;51.146;17.120;2023-06-26T10:47:34;100089.60;;;29.50
66372;BMP180;53168;51.146;17.120;2023-06-26T10:50:30;100090.80;;;29.90
66372;BMP180;53168;51.146;17.120;2023-06-26T10:53:24;100083.20;;;30.08
66372;BMP180;53168;51.146;17.120;2023-06-26T10:56:05;100086.80;;;30.50
66372;BMP180;53168;51.146;17.120;2023-06-26T10:58:45;100095.80;;;30.70
66372;BMP180;53168;51.146;17.120;2023-06-26T11:01:25;100092.80;;;30.60
66372;BMP180;53168;51.146;17.120;2023-06-26T11:04:08;100082.00;;;30.50
66372;BMP180;53168;51.146;17.120;2023-06-26T11:06:48;100079.20;;;30.52
66372;BMP180;53168;51.146;17.120;2023-06-26T11:09:57;100077.00;;;30.90
66372;BMP180;53168;51.146;17.120;2023-06-26T11:12:43;100085.00;;;31.20
66372;BMP180;53168;51.146;17.120;2023-06-26T11:15:22;100079.20;;;31.12
66372;BMP180;53168;51.146;17.120;2023-06-26T11:17:59;100083.00;;;31.30
66372;BMP180;53168;51.146;17.120;2023-06-26T11:20:35;100079.80;;;31.40
66372;BMP180;53168;51.146;17.120;2023-06-26T11:23:11;100072.80;;;31.60
66372;BMP180;53168;51.146;17.120;2023-06-26T11:25:50;100029.00;;;32.36
66372;BMP180;53168;51.146;17.120;2023-06-26T11:28:30;100003.20;;;33.26
66372;BMP180;53168;51.146;17.120;2023-06-26T11:31:05;99990.80;;;35.12
66372;BMP180;53168;51.146;17.120;2023-06-26T11:33:39;100037.80;;;35.86
66372;BMP180;53168;51.146;17.120;2023-06-26T11:36:14;99979.80;;;34.10
66372;BMP180;53168;51.146;17.120;2023-06-26T11:38:54;99982.60;;;35.68
66372;BMP180;53168;51.146;17.120;2023-06-26T11:41:34;99974.80;;;35.32
66372;BMP180;53168;51.146;17.120;2023-06-26T11:44:12;99979.20;;;36.38
66372;BMP180;53168;51.146;17.120;2023-06-26T11:46:53;99966.20;;;36.58
66372;BMP180;53168;51.146;17.120;2023-06-26T11:49:31;99951.00;;;36.92
66372;BMP180;53168;51.146;17.120;2023-06-26T11:52:07;99939.00;;;36.28
66372;BMP180;53168;51.146;17.120;2023-06-26T11:54:44;99936.20;;;36.98
66372;BMP180;53168;51.146;17.120;2023-06-26T11:57:30;99920.80;;;37.30
66372;BMP180;53168;51.146;17.120;2023-06-26T12:00:24;99920.00;;;37.12
66372;BMP180;53168;51.146;17.120;2023-06-26T12:03:01;99927.20;;;37.68
66372;BMP180;53168;51.146;17.120;2023-06-26T12:05:37;99931.80;;;38.10
66372;BMP180;53168;51.146;17.120;2023-06-26T12:08:15;99939.80;;;38.50
66372;BMP180;53168;51.146;17.120;2023-06-26T12:10:52;100045.80;;;37.08
66372;BMP180;53168;51.146;17.120;2023-06-26T12:13:41;100039.60;;;35.12
66372;BMP180;53168;51.146;17.120;2023-06-26T12:16:28;100037.20;;;33.98
66372;BMP180;53168;51.146;17.120;2023-06-26T12:19:42;99981.80;;;34.70
66372;BMP180;53168;51.146;17.120;2023-06-26T12:22:20;99982.80;;;35.46
66372;BMP180;53168;51.146;17.120;2023-06-26T12:28:46;99996.20;;;36.92
66372;BMP180;53168;51.146;17.120;2023-06-26T12:32:14;99987.60;;;37.26
66372;BMP180;53168;51.146;17.120;2023-06-26T12:35:49;100002.40;;;37.44
66372;BMP180;53168;51.146;17.120;2023-06-26T12:38:54;99986.40;;;37.68
66372;BMP180;53168;51.146;17.120;2023-06-26T12:46:03;100002.60;;;37.18
66372;BMP180;53168;51.146;17.120;2023-06-26T12:49:11;99992.20;;;37.40
66372;BMP180;53168;51.146;17.120;2023-06-26T12:52:19;99986.20;;;37.66
66372;BMP180;53168;51.146;17.120;2023-06-26T12:55:00;99984.00;;;38.10
66372;BMP180;53168;51.146;17.120;2023-06-26T12:57:38;99983.80;;;38.30
66372;BMP180;53168;51.146;17.120;2023-06-26T13:00:19;99980.40;;;38.60
66372;BMP180;53168;51.146;17.120;2023-06-26T13:06:26;99975.40;;;38.82
66372;BMP180;53168;51.146;17.120;2023-06-26T13:09:40;99984.40;;;37.94
66372;BMP180;53168;51.146;17.120;2023-06-26T13:12:46;99968.20;;;38.24
66372;BMP180;53168;51.146;17.120;2023-06-26T13:15:57;99962.20;;;38.78
66372;BMP180;53168;51.146;17.120;2023-06-26T13:18:59;99957.40;;;39.00
66372;BMP180;53168;51.146;17.120;2023-06-26T13:22:26;99956.00;;;39.40
66372;BMP180;53168;51.146;17.120;2023-06-26T13:25:41;99943.60;;;39.72
66372;BMP180;53168;51.146;17.120;2023-06-26T13:29:09;99947.40;;;40.00
66372;BMP180;53168;51.146;17.120;2023-06-26T13:32:01;99956.00;;;39.86
66372;BMP180;53168;51.146;17.120;2023-06-26T13:46:44;99930.80;;;40.58
66372;BMP180;53168;51.146;17.120;2023-06-26T13:49:51;99924.00;;;40.60
66372;BMP180;53168;51.146;17.120;2023-06-26T13:52:52;99927.60;;;40.58
66372;BMP180;53168;51.146;17.120;2023-06-26T13:55:29;99914.80;;;40.60
66372;BMP180;53168;51.146;17.120;2023-06-26T13:58:10;99917.00;;;40.18
66372;BMP180;53168;51.146;17.120;2023-06-26T14:01:11;99908.00;;;40.20
66372;BMP180;53168;51.146;17.120;2023-06-26T14:04:10;99915.20;;;40.28
66372;BMP180;53168;51.146;17.120;2023-06-26T14:06:54;99929.60;;;38.88
66372;BMP180;53168;51.146;17.120;2023-06-26T14:09:50;99924.60;;;37.36
66372;BMP180;53168;51.146;17.120;2023-06-26T14:12:28;99912.20;;;38.00
66372;BMP180;53168;51.146;17.120;2023-06-26T14:15:11;99916.80;;;37.00
66372;BMP180;53168;51.146;17.120;2023-06-26T14:17:45;99912.00;;;35.94
66372;BMP180;53168;51.146;17.120;2023-06-26T14:20:20;99867.00;;;36.08
66372;BMP180;53168;51.146;17.120;2023-06-26T14:22:55;99862.60;;;36.90
66372;BMP180;53168;51.146;17.120;2023-06-26T14:25:29;99863.60;;;38.06
66372;BMP180;53168;51.146;17.120;2023-06-26T14:28:03;99863.00;;;39.02
66372;BMP180;53168;51.146;17.120;2023-06-26T14:30:37;99853.00;;;39.46
66372;BMP180;53168;51.146;17.120;2023-06-26T14:33:12;99850.80;;;39.96
66372;BMP180;53168;51.146;17.120;2023-06-26T14:35:46;99853.20;;;40.38
66372;BMP180;53168;51.146;17.120;2023-06-26T14:38:32;99847.20;;;40.72
66372;BMP180;53168;51.146;17.120;2023-06-26T14:42:17;99839.20;;;41.28
66372;BMP180;53168;51.146;17.120;2023-06-26T14:56:57;99832.60;;;35.94
66372;BMP180;53168;51.146;17.120;2023-06-26T15:00:03;99813.60;;;36.22
66372;BMP180;53168;51.146;17.120;2023-06-26T15:07:49;99799.40;;;38.94
66372;BMP180;53168;51.146;17.120;2023-06-26T15:10:23;99801.80;;;39.54
66372;BMP180;53168;51.146;17.120;2023-06-26T15:13:00;99799.60;;;40.00
66372;BMP180;53168;51.146;17.120;2023-06-26T15:15:34;99795.60;;;40.20
66372;BMP180;53168;51.146;17.120;2023-06-26T15:18:08;99794.60;;;39.80
66372;BMP180;53168;51.146;17.120;2023-06-26T15:21:13;99823.20;;;39.58
66372;BMP180;53168;51.146;17.120;2023-06-26T15:23:58;99779.80;;;39.10
66372;BMP180;53168;51.146;17.120;2023-06-26T15:26:32;99782.20;;;39.40
66372;BMP180;53168;51.146;17.120;2023-06-26T15:29:08;99811.00;;;39.22
66372;BMP180;53168;51.146;17.120;2023-06-26T15:31:51;99771.60;;;39.18
66372;BMP180;53168;51.146;17.120;2023-06-26T15:34:28;99770.80;;;40.00
66372;BMP180;53168;51.146;17.120;2023-06-26T15:37:07;99813.00;;;39.92
66372;BMP180;53168;51.146;17.120;2023-06-26T15:39:48;99807.40;;;37.92
66372;BMP180;53168;51.146;17.120;2023-06-26T15:42:30;99788.20;;;36.28
66372;BMP180;53168;51.146;17.120;2023-06-26T15:45:09;99798.40;;;36.14
66372;BMP180;53168;51.146;17.120;2023-06-26T15:47:45;99746.00;;;35.70
66372;BMP180;53168;51.146;17.120;2023-06-26T15:50:22;99743.00;;;36.64
66372;BMP180;53168;51.146;17.120;2023-06-26T15:53:08;99740.40;;;37.48
66372;BMP180;53168;51.146;17.120;2023-06-26T16:14:35;99722.20;;;39.30
66372;BMP180;53168;51.146;17.120;2023-06-26T16:17:25;99722.00;;;39.40
66372;BMP180;53168;51.146;17.120;2023-06-26T16:20:09;99713.80;;;39.38
66372;BMP180;53168;51.146;17.120;2023-06-26T16:22:44;99720.20;;;39.30
66372;BMP180;53168;51.146;17.120;2023-06-26T16:28:19;99712.20;;;39.22
66372;BMP180;53168;51.146;17.120;2023-06-26T16:33:32;99710.60;;;39.12
66372;BMP180;53168;51.146;17.120;2023-06-26T16:45:51;99694.20;;;38.70
66372;BMP180;53168;51.146;17.120;2023-06-26T16:48:28;99684.40;;;38.80
66372;BMP180;53168;51.146;17.120;2023-06-26T16:54:29;99652.60;;;38.40
66372;BMP180;53168;51.146;17.120;2023-06-26T16:57:27;99667.40;;;38.26
66372;BMP180;53168;51.146;17.120;2023-06-26T17:03:16;99721.80;;;35.80
66372;BMP180;53168;51.146;17.120;2023-06-26T17:06:29;99711.40;;;34.80
66372;BMP180;53168;51.146;17.120;2023-06-26T17:43:14;99734.00;;;29.40
66372;BMP180;53168;51.146;17.120;2023-06-26T17:46:15;99738.00;;;29.10
66372;BMP180;53168;51.146;17.120;2023-06-26T17:50:05;99732.80;;;28.68
66372;BMP180;53168;51.146;17.120;2023-06-26T17:53:02;99724.80;;;28.40
66372;BMP180;53168;51.146;17.120;2023-06-26T17:55:45;99723.40;;;28.12
66372;BMP180;53168;51.146;17.120;2023-06-26T17:58:46;99722.80;;;27.90
66372;BMP180;53168;51.146;17.120;2023-06-26T18:04:42;99704.20;;;27.50
66372;BMP180;53168;51.146;17.120;2023-06-26T18:07:21;99701.80;;;27.40
66372;BMP180;53168;51.146;17.120;2023-06-26T18:10:54;99698.60;;;27.26
66372;BMP180;53168;51.146;17.120;2023-06-26T18:17:13;99701.60;;;27.00
66372;BMP180;53168;51.146;17.120;2023-06-26T18:20:40;99696.80;;;26.80
66372;BMP180;53168;51.146;17.120;2023-06-26T18:24:00;99687.60;;;26.70
66372;BMP180;53168;51.146;17.120;2023-06-26T18:31:27;99678.80;;;26.32
66372;BMP180;53168;51.146;17.120;2023-06-26T18:45:19;99658.00;;;26.12
66372;BMP180;53168;51.146;17.120;2023-06-26T18:47:58;99649.60;;;26.00
66372;BMP180;53168;51.146;17.120;2023-06-26T19:00:31;99647.60;;;25.60
66372;BMP180;53168;51.146;17.120;2023-06-26T19:03:26;99640.80;;;25.52
66372;BMP180;53168;51.146;17.120;2023-06-26T19:06:21;99641.00;;;25.50
66372;BMP180;53168;51.146;17.120;2023-06-26T19:09:19;99641.20;;;25.40
66372;BMP180;53168;51.146;17.120;2023-06-26T19:12:15;99642.20;;;25.30
66372;BMP180;53168;51.146;17.120;2023-06-26T19:14:56;99644.40;;;25.30
66372;BMP180;53168;51.146;17.120;2023-06-26T19:17:30;99657.40;;;25.22
66372;BMP180;53168;51.146;17.120;2023-06-26T19:20:07;99658.20;;;25.20
66372;BMP180;53168;51.146;17.120;2023-06-26T19:22:47;99662.40;;;25.20
66372;BMP180;53168;51.146;17.120;2023-06-26T19:25:24;99664.60;;;25.10
66372;BMP180;53168;51.146;17.120;2023-06-26T19:28:10;99660.60;;;25.04
66372;BMP180;53168;51.146;17.120;2023-06-26T19:30:44;99651.20;;;25.00
66372;BMP180;53168;51.146;17.120;2023-06-26T19:33:24;99651.20;;;24.90
66372;BMP180;53168;51.146;17.120;2023-06-26T19:39:19;99644.20;;;24.80
66372;BMP180;53168;51.146;17.120;2023-06-26T19:42:10;99649.00;;;24.80
66372;BMP180;53168;51.146;17.120;2023-06-26T19:44:57;99648.00;;;24.70
66372;BMP180;53168;51.146;17.120;2023-06-26T19:47:34;99649.20;;;24.70
66372;BMP180;53168;51.146;17.120;2023-06-26T19:50:13;99650.00;;;24.60
66372;BMP180;53168;51.146;17.120;2023-06-26T19:52:57;99653.60;;;24.50